Latest Weather Observations for Roxby Downs

IDS60801

Issued at 5:35 pm CST Saturday 30 August 2014 (issued every 30 minutes, with the page automatically refreshed every 10 minutes)

About weather observations | Map of weather stations | Latest weather observations for SA | Other Formats
Station Details ID: 016096 Name: OLYMPIC DAM AERODROME Lat: -30.48 Lon: 136.88 Height: 98.5 m
Data from the previous 72 hours. | See also: Recent months at Roxby Downs
Date/Time
CST
Temp
°C
App
Temp
°C
Dew
Point
Rel
Hum
%
Delta-T
°C
Wind Press
QNH
hPa
Press
MSL
hPa
Rain
since 9 am
mm
Dir
 
Spd
km/h
Gust
km/h
Spd
kts
Gust
kts
30/05:30pm 22.9 17.4 -5.1 15 11.5 NNE 15 20 8 11 1019.1 1019.1 0.0
30/05:00pm 23.7 17.5 -5.3 14 12.0 NNE 19 26 10 14 1019.1 1019.1 0.0
30/04:30pm 24.0 17.8 -5.1 14 12.1 N 19 26 10 14 1019.0 1019.0 0.0
30/04:00pm 24.2 17.9 -4.0 15 12.0 N 20 30 11 16 1019.2 1019.2 0.0
30/03:30pm 24.5 18.1 -4.7 14 12.3 N 20 30 11 16 1019.3 1019.3 0.0
30/03:00pm 24.8 18.7 -3.6 15 12.2 N 19 32 10 17 1019.5 1019.5 0.0
30/02:30pm 24.2 18.0 -3.2 16 11.8 N 20 30 11 16 1019.7 1019.7 0.0
30/02:00pm 24.6 18.0 -2.9 16 12.0 NNE 22 33 12 18 1019.8 1019.8 0.0
30/01:30pm 24.7 18.6 -2.0 17 11.8 N 20 35 11 19 1020.6 1020.6 0.0
30/01:00pm 23.9 17.5 -1.8 18 11.4 N 22 37 12 20 1021.4 1021.4 0.0
30/12:30pm 23.8 17.0 -1.9 18 11.3 N 24 41 13 22 1022.0 1022.0 0.0
30/12:00pm 23.5 16.3 -2.2 18 11.2 N 26 35 14 19 1022.3 1022.3 0.0
30/11:30am 24.0 17.2 -1.8 18 11.4 NNE 24 33 13 18 1022.8 1022.8 0.0
30/11:00am 23.1 16.7 -1.8 19 11.0 N 22 33 12 18 1023.3 1023.3 0.0
30/10:30am 22.4 16.5 -1.0 21 10.3 N 20 28 11 15 1023.9 1024.0 0.0
30/10:00am 21.6 16.0 0.2 24 9.7 NNE 19 26 10 14 1023.9 1024.0 0.0
30/09:30am 19.7 14.6 0.7 28 8.5 NNE 17 20 9 11 1024.2 1024.3 0.0
30/09:00am 18.4 13.3 1.0 31 7.7 N 17 26 9 14 1024.4 1024.5 0.0
30/08:30am 15.9 12.3 0.9 36 6.5 NNE 9 11 5 6 1024.3 1024.4 0.0
30/08:00am 13.2 9.9 0.3 41 5.4 NNE 7 11 4 6 1024.0 1024.1 0.0
30/07:30am 9.3 5.6 -0.3 51 3.8 NE 9 11 5 6 1023.9 1024.0 0.0
30/07:23am 7.8 4.1 -0.2 57 3.1 NE 9 11 5 6 1023.9 1024.0 0.0
30/07:00am 2.6 -1.6 -3.9 62 2.2 NE 9 11 5 6 1023.8 1023.8 0.0
30/06:30am 2.7 0.1 -4.5 59 2.4 CALM 0 0 0 0 1023.7 1023.7 0.0
30/06:00am 3.1 0.5 -4.6 57 2.5 ENE 0 0 0 0 1023.5 1023.5 0.0
30/05:30am 3.9 1.5 -3.1 60 2.4 CALM 0 0 0 0 1023.3 1023.3 0.0
30/05:00am 3.6 0.0 -3.9 58 2.5 NNE 6 7 3 4 1023.2 1023.2 0.0
30/04:30am 4.1 0.4 -3.2 59 2.5 NNE 7 9 4 5 1022.9 1022.9 0.0
30/04:00am 4.6 0.4 -4.1 53 3.0 NE 9 9 5 5 1022.8 1022.8 0.0
30/03:30am 5.3 1.1 -3.5 53 3.1 NE 9 9 5 5 1022.9 1022.9 0.0
30/03:00am 5.7 2.0 -2.9 54 3.1 NNE 7 7 4 4 1023.3 1023.3 0.0
30/02:30am 6.9 4.8 -1.0 57 3.0 CALM 0 0 0 0 1023.3 1023.3 0.0
30/02:00am 5.6 3.2 -3.2 53 3.1 CALM 0 0 0 0 1023.5 1023.5 0.0
30/01:30am 6.4 4.1 -2.5 53 3.2 CALM 0 0 0 0 1023.9 1024.0 0.0
30/01:00am 6.7 2.9 -3.5 48 3.6 E 7 7 4 4 1024.2 1024.3 0.0
30/12:30am 7.9 4.3 -2.1 49 3.7 ENE 7 9 4 5 1024.2 1024.3 0.0
30/12:00am 7.9 3.9 -2.4 48 3.8 ENE 9 11 5 6 1024.2 1024.3 0.0
 
Date/Time
CST
Temp
°C
App
Temp
°C
Dew
Point
Rel
Hum
%
Delta-T
°C
Wind Press
QNH
hPa
Press
MSL
hPa
Rain
since 9 am
mm
Dir
 
Spd
km/h
Gust
km/h
Spd
kts
Gust
kts
29/11:30pm 8.1 3.6 -3.1 45 4.1 E 11 13 6 7 1024.2 1024.3 0.0
29/11:00pm 8.9 5.3 -1.8 47 4.1 SSE 7 7 4 4 1024.2 1024.3 0.0
29/10:30pm 8.9 5.8 -3.0 43 4.4 SSE 4 6 2 3 1024.2 1024.3 0.0
29/10:00pm 10.1 7.2 -1.0 46 4.4 SSE 4 6 2 3 1024.2 1024.3 0.0
29/09:30pm 9.9 7.5 -3.4 39 4.9 CALM 0 0 0 0 1024.3 1024.4 0.0
29/09:00pm 10.7 8.4 -2.7 39 5.1 CALM 0 0 0 0 1024.2 1024.3 0.0
29/08:30pm 11.7 9.3 -3.2 35 5.7 CALM 0 0 0 0 1024.1 1024.2 0.0
29/08:00pm 12.7 10.4 -2.7 34 6.0 CALM 0 0 0 0 1024.0 1024.1 0.0
29/07:30pm 14.0 11.7 -2.4 32 6.5 CALM 0 0 0 0 1023.9 1024.0 0.0
29/07:00pm 16.1 13.1 -1.9 29 7.4 ENE 4 6 2 3 1023.7 1023.7 0.0
29/06:30pm 19.7 16.4 -0.9 25 8.9 NNE 6 7 3 4 1023.6 1023.6 0.0
29/06:00pm 21.8 17.7 -0.2 23 9.8 NE 11 17 6 9 1023.4 1023.4 0.0
29/05:30pm 22.9 17.2 -0.6 21 10.5 NE 19 26 10 14 1023.3 1023.3 0.0
29/05:00pm 23.6 19.1 -0.6 20 10.9 NE 13 20 7 11 1023.3 1023.3 0.0
29/04:30pm 23.9 18.6 -0.4 20 11.0 NE 17 28 9 15 1023.3 1023.3 0.0
29/04:00pm 23.4 18.2 -0.1 21 10.7 NE 17 26 9 14 1023.3 1023.3 0.0
29/03:30pm 24.4 19.6 0.0 20 11.2 NE 15 20 8 11 1023.6 1023.6 0.0
29/03:00pm 24.7 19.9 0.3 20 11.3 NE 15 24 8 13 1023.9 1024.0 0.0
29/02:30pm 23.7 17.6 0.1 21 10.8 NNE 22 32 12 17 1024.3 1024.4 0.0
29/02:00pm 23.9 18.4 0.3 21 10.9 NE 19 32 10 17 1024.6 1024.7 0.0
29/01:30pm 23.3 17.8 0.4 22 10.5 NNE 19 24 10 13 1025.2 1025.3 0.0
29/01:00pm 23.0 17.3 0.8 23 10.3 N 20 30 11 16 1025.7 1025.8 0.0
29/12:30pm 22.6 17.1 1.6 25 9.8 NE 20 26 11 14 1026.6 1026.6 0.0
29/12:00pm 22.4 16.2 2.0 26 9.5 NE 24 32 13 17 1027.2 1027.2 0.0
29/11:30am 22.2 15.6 2.3 27 9.3 NE 26 33 14 18 1027.5 1027.5 0.0
29/11:00am 22.1 16.3 2.2 27 9.4 NE 22 32 12 17 1028.0 1028.0 0.0
29/10:30am 20.9 14.6 1.7 28 8.8 NE 24 32 13 17 1028.2 1028.2 0.0
29/10:00am 20.6 15.2 1.5 28 8.8 NE 19 30 10 16 1028.3 1028.3 0.0
29/09:30am 20.5 15.6 1.9 29 8.5 NE 17 24 9 13 1028.3 1028.3 0.0
29/09:00am 18.8 14.6 1.8 32 7.7 NE 13 22 7 12 1028.2 1028.2 0.0
29/08:30am 17.1 13.0 2.3 37 6.7 NE 13 20 7 11 1028.0 1028.0 0.0
29/08:00am 14.1 11.7 2.4 45 5.2 NE 4 9 2 5 1028.0 1028.0 0.0
29/07:30am 9.5 7.6 2.6 62 2.9 ENE 2 6 1 3 1027.7 1027.7 0.0
29/07:00am 5.3 2.0 -1.2 63 2.4 E 6 7 3 4 1027.4 1027.4 0.0
29/06:30am 5.4 1.5 -1.3 62 2.5 E 9 11 5 6 1027.3 1027.3 0.0
29/06:00am 5.6 2.3 -1.5 60 2.6 E 6 7 3 4 1027.1 1027.1 0.0
29/05:30am 6.3 2.9 -0.9 60 2.7 E 7 9 4 5 1026.7 1026.7 0.0
29/05:00am 7.2 4.4 -0.5 58 3.0 ENE 4 9 2 5 1026.3 1026.4 0.0
29/04:30am 8.0 5.9 -0.5 55 3.3 CALM 0 0 0 0 1026.1 1026.2 0.0
29/04:00am 8.4 5.1 0.1 56 3.3 NE 7 9 4 5 1026.0 1026.1 0.0
29/03:30am 10.3 7.1 0.9 52 3.9 NE 7 9 4 5 1025.9 1026.0 0.0
29/03:00am 12.2 8.7 1.2 47 4.6 ENE 9 11 5 6 1026.0 1026.1 0.0
29/02:30am 11.9 8.4 1.3 48 4.5 ENE 9 11 5 6 1025.9 1026.0 0.0
29/02:00am 12.6 9.0 0.7 44 5.0 E 9 11 5 6 1026.1 1026.2 0.0
29/01:30am 14.2 9.9 1.2 41 5.6 E 13 15 7 8 1026.3 1026.4 0.0
29/01:00am 14.3 10.4 1.2 41 5.7 E 11 13 6 7 1026.3 1026.4 0.0
29/12:30am 14.6 11.1 1.2 40 5.8 ENE 9 11 5 6 1026.5 1026.5 0.0
29/12:00am 15.2 11.3 1.0 38 6.1 ENE 11 15 6 8 1026.5 1026.5 0.0
 
Date/Time
CST
Temp
°C
App
Temp
°C
Dew
Point
Rel
Hum
%
Delta-T
°C
Wind Press
QNH
hPa
Press
MSL
hPa
Rain
since 9 am
mm
Dir
 
Spd
km/h
Gust
km/h
Spd
kts
Gust
kts
28/11:30pm 16.4 12.5 1.3 36 6.6 ENE 11 15 6 8 1026.6 1026.6 0.0
28/11:00pm 17.2 12.3 2.0 36 6.9 E 17 24 9 13 1026.6 1026.6 0.0
28/10:30pm 17.0 12.5 4.0 42 6.1 E 17 22 9 12 1026.8 1026.8 0.0
28/10:24pm 16.6 12.2 4.6 45 5.7 ESE 17 20 9 11 1026.7 1026.7 0.0
28/10:00pm 11.4 9.5 0.5 47 4.5 CALM 0 0 0 0 1026.5 1026.5 0.0
28/09:30pm 11.9 10.0 0.4 45 4.7 CALM 0 0 0 0 1026.5 1026.5 0.0
28/09:00pm 12.6 10.7 0.7 44 5.0 CALM 0 0 0 0 1026.2 1026.3 0.0
28/08:30pm 13.4 11.5 0.4 41 5.4 CALM 0 0 0 0 1026.1 1026.2 0.0
28/08:00pm 14.7 13.0 1.6 41 5.7 CALM 0 0 0 0 1026.0 1026.1 0.0
28/07:30pm 15.8 13.9 0.4 35 6.6 CALM 0 0 0 0 1025.7 1025.8 0.0
28/07:00pm 17.5 15.7 1.1 33 7.3 CALM 0 0 0 0 1025.4 1025.5 0.0
28/06:30pm 19.5 17.9 2.4 32 7.9 CALM 0 6 0 3 1025.2 1025.3 0.0
28/06:00pm 22.4 19.6 3.0 28 9.3 NNE 7 9 4 5 1025.0 1025.1 0.0
28/05:30pm 23.8 20.2 3.2 26 10.0 ENE 11 19 6 10 1024.9 1025.0 0.0
28/05:00pm 24.4 20.6 3.7 26 10.2 E 13 26 7 14 1024.8 1024.9 0.0
28/04:30pm 24.3 21.4 4.6 28 9.8 SE 9 11 5 6 1024.5 1024.6 0.0
28/04:00pm 24.6 21.4 4.9 28 9.9 ENE 11 17 6 9 1024.5 1024.6 0.0
28/03:30pm 24.5 20.8 4.3 27 10.0 E 13 20 7 11 1024.7 1024.8 0.0
28/03:00pm 25.0 21.3 4.7 27 10.2 E 13 17 7 9 1024.9 1025.0 0.0
28/02:30pm 24.1 20.8 4.5 28 9.7 E 11 19 6 10 1025.2 1025.3 0.0
28/02:00pm 24.0 19.8 3.9 27 9.9 E 15 26 8 14 1025.4 1025.5 0.0
28/01:30pm 23.9 20.6 4.8 29 9.5 ENE 11 26 6 14 1025.7 1025.8 0.0
28/01:00pm 23.5 19.1 4.9 30 9.3 E 17 24 9 13 1026.1 1026.2 0.0
28/12:30pm 22.9 19.0 5.3 32 8.8 ENE 15 24 8 13 1026.7 1026.7 0.0
28/12:00pm 22.8 18.0 5.7 33 8.6 ENE 20 28 11 15 1027.1 1027.1 0.0
28/11:30am 22.6 18.0 6.4 35 8.2 ENE 20 30 11 16 1027.5 1027.5 0.0
28/11:00am 22.1 17.6 6.3 36 8.0 ENE 19 28 10 15 1027.8 1027.8 0.0
28/10:30am 21.6 17.0 6.3 37 7.7 NE 20 28 11 15 1028.1 1028.1 0.0
28/10:00am 21.2 16.8 6.7 39 7.4 ENE 19 26 10 14 1028.2 1028.2 0.0
28/09:30am 20.3 16.2 6.3 40 7.0 E 17 22 9 12 1028.3 1028.3 0.0
28/09:00am 19.1 15.3 5.9 42 6.5 E 15 22 8 12 1028.1 1028.1 0.0
28/08:30am 17.8 14.4 5.7 45 5.9 E 13 17 7 9 1028.0 1028.0 0.0
28/08:00am 13.9 11.3 4.2 52 4.5 SSE 7 9 4 5 1027.7 1027.7 0.0
28/07:30am 10.2 7.5 2.8 60 3.2 S 6 9 3 5 1027.3 1027.3 0.0
28/07:00am 6.8 3.7 0.3 63 2.6 SSE 6 7 3 4 1026.9 1026.9 0.0
28/06:30am 6.6 3.2 -0.8 59 2.8 SSE 7 7 4 4 1026.5 1026.5 0.0
28/06:00am 6.4 3.0 -0.8 60 2.7 SSE 7 7 4 4 1026.1 1026.2 0.0
28/05:30am 6.4 2.9 -1.2 58 2.8 SSE 7 9 4 5 1025.9 1026.0 0.0
28/05:00am 6.1 2.8 -1.5 58 2.8 SSE 6 7 3 4 1025.8 1025.9 0.0
28/04:30am 6.1 2.5 -2.2 55 3.0 SSE 7 9 4 5 1025.7 1025.8 0.0
28/04:00am 6.8 3.4 -2.4 52 3.4 SSE 6 7 3 4 1025.5 1025.6 0.0
28/03:30am 7.3 3.3 -2.2 51 3.5 SSE 9 9 5 5 1025.4 1025.5 0.0
28/03:00am 7.4 4.0 -0.8 56 3.1 SSE 7 9 4 5 1025.3 1025.4 0.0
28/02:30am 6.5 4.1 -2.9 51 3.4 CALM 0 0 0 0 1025.4 1025.5 0.0
28/02:00am 7.1 3.6 -2.6 50 3.6 S 6 7 3 4 1025.6 1025.7 0.0
28/01:30am 7.4 4.0 -2.3 50 3.6 S 6 7 3 4 1026.0 1026.1 0.0
28/01:00am 7.6 4.0 -2.1 50 3.6 S 7 7 4 4 1026.0 1026.1 0.0
28/12:30am 7.7 4.2 -2.6 48 3.8 SE 6 7 3 4 1026.0 1026.1 0.0
28/12:00am 7.9 4.5 -2.1 49 3.7 SE 6 7 3 4 1026.0 1026.1 0.0
 
Date/Time
CST
Temp
°C
App
Temp
°C
Dew
Point
Rel
Hum
%
Delta-T
°C
Wind Press
QNH
hPa
Press
MSL
hPa
Rain
since 9 am
mm
Dir
 
Spd
km/h
Gust
km/h
Spd
kts
Gust
kts
27/11:30pm 8.3 4.7 -2.3 47 3.9 SE 7 7 4 4 1026.2 1026.3 0.0
27/11:00pm 8.7 5.3 -2.3 46 4.1 SSE 6 7 3 4 1026.2 1026.3 0.0
27/10:30pm 9.4 7.2 -1.9 45 4.3 CALM 0 0 0 0 1026.0 1026.1 0.0
27/10:00pm 9.7 7.3 -2.9 41 4.7 CALM 0 0 0 0 1026.0 1026.1 0.0
27/09:30pm 10.5 7.0 -2.5 40 4.9 E 6 9 3 5 1025.9 1026.0 0.0
27/09:00pm 12.3 10.0 -2.7 35 5.8 CALM 0 0 0 0 1025.8 1025.9 0.0
27/08:30pm 14.9 11.4 -1.6 32 6.7 ESE 7 9 4 5 1025.6 1025.7 0.0
27/08:00pm 16.8 13.0 -0.9 30 7.5 E 9 11 5 6 1025.4 1025.5 0.0
27/07:30pm 17.8 13.3 0.0 30 7.7 E 13 13 7 7 1024.9 1025.0 0.0
27/07:00pm 18.9 14.8 0.0 28 8.3 E 11 13 6 7 1024.5 1024.6 0.0
27/06:30pm 20.4 16.1 -2.0 22 9.5 E 11 15 6 8 1024.3 1024.4 0.0
27/06:00pm 21.8 17.9 -1.5 21 10.1 SE 9 15 5 8 1023.9 1024.0 0.0

Other Formats:

Comma delimited format used in spreadsheet applications
http://www.bom.gov.au/fwo/IDS60801/IDS60801.95658.axf

JavaScript Object Notation format (JSON) in row-major order
http://www.bom.gov.au/fwo/IDS60801/IDS60801.95658.json